createdAt,value
2023-02-11T00:00:58.395Z,-0.30
2023-02-11T00:03:25.330Z,-0.30
2023-02-11T00:06:02.958Z,-0.40
2023-02-11T00:08:29.669Z,-0.30
2023-02-11T00:10:58.267Z,-0.30
2023-02-11T00:13:25.408Z,-0.30
2023-02-11T00:15:52.492Z,-0.30
2023-02-11T00:18:19.253Z,-0.30
2023-02-11T00:20:46.138Z,-0.20
2023-02-11T00:23:13.029Z,-0.20
2023-02-11T00:25:45.264Z,-0.30
2023-02-11T00:28:12.511Z,-0.20
2023-02-11T00:30:39.465Z,-0.20
2023-02-11T00:33:06.268Z,-0.20
2023-02-11T00:35:32.935Z,-0.20
2023-02-11T00:37:59.646Z,-0.20
2023-02-11T00:40:26.325Z,-0.20
2023-02-11T00:42:53.036Z,-0.20
2023-02-11T00:45:21.169Z,-0.20
2023-02-11T00:47:48.015Z,-0.10
2023-02-11T00:50:14.994Z,-0.10
2023-02-11T00:52:41.690Z,-0.10
2023-02-11T00:55:08.599Z,0.00
2023-02-11T00:57:35.288Z,0.00
2023-02-11T01:00:02.321Z,0.00
2023-02-11T01:02:29.009Z,0.10
2023-02-11T01:04:55.694Z,0.10
2023-02-11T01:07:22.443Z,0.10
2023-02-11T01:09:49.108Z,0.10
2023-02-11T01:12:15.870Z,0.10
2023-02-11T01:14:42.700Z,0.20
2023-02-11T01:17:09.724Z,0.20
2023-02-11T01:19:39.898Z,0.10
2023-02-11T01:22:06.860Z,0.10
2023-02-11T01:24:33.654Z,0.10
2023-02-11T01:27:00.387Z,0.10
2023-02-11T01:29:27.048Z,0.20
2023-02-11T01:31:53.756Z,0.20
2023-02-11T01:34:20.449Z,0.20
2023-02-11T01:36:47.148Z,0.20
2023-02-11T01:39:13.805Z,0.20
2023-02-11T01:41:40.478Z,0.10
2023-02-11T01:44:38.261Z,0.10
2023-02-11T01:47:06.379Z,0.10
2023-02-11T01:49:36.442Z,0.00
2023-02-11T01:52:12.449Z,0.00
2023-02-11T01:55:02.380Z,0.00
2023-02-11T01:57:31.925Z,0.00
2023-02-11T02:00:22.514Z,0.10
2023-02-11T02:02:58.733Z,0.00
2023-02-11T02:05:31.027Z,0.00
2023-02-11T02:08:35.353Z,0.10
2023-02-11T02:11:03.373Z,0.10
2023-02-11T02:13:32.399Z,0.10
2023-02-11T02:16:04.524Z,0.10
2023-02-11T02:18:34.369Z,0.10
2023-02-11T02:21:32.067Z,0.10
2023-02-11T02:24:36.175Z,0.10
2023-02-11T02:27:33.839Z,0.20
2023-02-11T02:30:03.615Z,0.20
2023-02-11T02:33:25.319Z,0.20
2023-02-11T02:36:21.123Z,0.20
2023-02-11T02:39:23.946Z,0.30
2023-02-11T02:41:52.801Z,0.30
2023-02-11T02:44:20.572Z,0.30
2023-02-11T02:46:47.258Z,0.30
2023-02-11T02:49:15.802Z,0.30
2023-02-11T02:52:11.350Z,0.30
2023-02-11T02:54:56.556Z,0.30
2023-02-11T02:57:44.642Z,0.40
2023-02-11T03:00:30.313Z,0.40
2023-02-11T03:03:20.545Z,0.40
2023-02-11T03:06:04.207Z,0.40
2023-02-11T03:08:51.043Z,0.40
2023-02-11T03:11:20.263Z,0.50
2023-02-11T03:13:48.514Z,0.50
2023-02-11T03:16:20.560Z,0.50
2023-02-11T03:18:52.046Z,0.50
2023-02-11T03:21:20.757Z,0.50
2023-02-11T03:23:50.877Z,0.50
2023-02-11T03:26:26.844Z,0.50
2023-02-11T03:28:53.369Z,0.60
2023-02-11T03:31:29.124Z,0.50
2023-02-11T03:33:59.930Z,0.50
2023-02-11T03:36:55.901Z,0.60
2023-02-11T03:39:30.666Z,0.60
2023-02-11T03:41:59.565Z,0.60
2023-02-11T03:44:31.205Z,0.60
2023-02-11T03:46:59.282Z,0.60
2023-02-11T03:49:28.526Z,0.60
2023-02-11T03:51:56.529Z,0.60
2023-02-11T03:54:30.761Z,0.60
2023-02-11T03:57:00.634Z,0.70
2023-02-11T03:59:27.719Z,0.70
2023-02-11T04:01:55.136Z,0.70
2023-02-11T04:04:21.893Z,0.70
2023-02-11T04:06:48.630Z,0.70
2023-02-11T04:09:16.411Z,0.70
2023-02-11T04:11:43.100Z,0.70
2023-02-11T04:14:09.769Z,0.70
2023-02-11T04:16:36.500Z,0.70
2023-02-11T04:19:03.237Z,0.70
2023-02-11T04:21:29.885Z,0.70
2023-02-11T04:23:56.630Z,0.70
2023-02-11T04:26:23.362Z,0.70
2023-02-11T04:28:50.084Z,0.70
2023-02-11T04:31:16.863Z,0.70
2023-02-11T04:33:43.570Z,0.70
2023-02-11T04:36:10.205Z,0.80
2023-02-11T04:38:36.898Z,0.80
2023-02-11T04:41:03.620Z,0.80
2023-02-11T04:43:30.284Z,0.80
2023-02-11T04:45:58.773Z,0.80
2023-02-11T04:48:25.845Z,0.80
2023-02-11T04:50:52.633Z,0.80
2023-02-11T04:53:19.376Z,0.90
2023-02-11T04:55:50.562Z,0.90
2023-02-11T04:58:18.208Z,0.90
2023-02-11T05:00:45.068Z,0.90
2023-02-11T05:03:12.399Z,0.90
2023-02-11T05:05:40.624Z,0.90
2023-02-11T05:08:08.421Z,0.90
2023-02-11T05:10:35.863Z,0.90
2023-02-11T05:13:03.279Z,0.90
2023-02-11T05:15:31.152Z,0.90
2023-02-11T05:17:57.813Z,0.90
2023-02-11T05:20:24.509Z,0.80
2023-02-11T05:22:51.714Z,0.80
2023-02-11T05:25:18.568Z,0.80
2023-02-11T05:27:45.281Z,0.70
2023-02-11T05:30:12.270Z,0.70
2023-02-11T05:32:39.013Z,0.60
2023-02-11T05:35:06.076Z,0.60
2023-02-11T05:37:32.846Z,0.60
2023-02-11T05:39:59.517Z,0.60
2023-02-11T05:42:26.176Z,0.60
2023-02-11T05:44:52.870Z,0.60
2023-02-11T05:47:19.657Z,0.60
2023-02-11T05:49:46.319Z,0.60
2023-02-11T05:52:13.041Z,0.60
2023-02-11T05:54:39.708Z,0.60
2023-02-11T05:57:06.515Z,0.60
2023-02-11T05:59:33.161Z,0.60
2023-02-11T06:01:59.861Z,0.60
2023-02-11T06:04:26.582Z,0.60
2023-02-11T06:06:53.204Z,0.60
2023-02-11T06:09:20.048Z,0.60
2023-02-11T06:11:46.694Z,0.60
2023-02-11T06:14:14.301Z,0.70
2023-02-11T06:16:40.999Z,0.70
2023-02-11T06:19:07.743Z,0.80
2023-02-11T06:21:43.389Z,0.80
2023-02-11T06:24:10.314Z,0.80
2023-02-11T06:26:37.158Z,0.80
2023-02-11T06:29:03.797Z,0.80
2023-02-11T06:31:30.614Z,0.80
2023-02-11T06:33:58.410Z,0.80
2023-02-11T06:36:25.524Z,0.80
2023-02-11T06:38:53.406Z,0.80
2023-02-11T06:41:20.561Z,0.70
2023-02-11T06:43:47.558Z,0.70
2023-02-11T06:46:14.785Z,0.70
2023-02-11T06:48:44.396Z,0.70
2023-02-11T06:51:13.360Z,0.70
2023-02-11T06:53:43.768Z,0.70
2023-02-11T06:56:16.031Z,0.70
2023-02-11T06:58:42.778Z,0.80
2023-02-11T07:01:12.355Z,0.80
2023-02-11T07:03:41.387Z,0.80
2023-02-11T07:06:08.811Z,0.90
2023-02-11T07:08:37.144Z,0.90
2023-02-11T07:11:37.706Z,0.90
2023-02-11T07:14:08.323Z,0.90
2023-02-11T07:16:35.637Z,1.00
2023-02-11T07:19:02.419Z,1.00
2023-02-11T07:21:29.074Z,1.00
2023-02-11T07:23:55.743Z,1.10
2023-02-11T07:26:23.619Z,1.20
2023-02-11T07:28:51.381Z,1.20
2023-02-11T07:31:24.041Z,1.30
2023-02-11T07:33:52.916Z,1.40
2023-02-11T07:36:19.832Z,1.40
2023-02-11T07:38:47.112Z,1.50
2023-02-11T07:41:17.409Z,1.50
2023-02-11T07:43:45.142Z,1.50
2023-02-11T07:46:24.164Z,1.60
2023-02-11T07:48:51.949Z,1.60
2023-02-11T07:51:31.795Z,1.60
2023-02-11T07:54:00.081Z,1.70
2023-02-11T07:56:27.995Z,1.70
2023-02-11T07:58:55.467Z,1.80
2023-02-11T08:01:25.383Z,1.80
2023-02-11T08:03:52.921Z,2.00
2023-02-11T08:06:21.656Z,2.00
2023-02-11T08:08:48.901Z,2.10
2023-02-11T08:11:21.284Z,2.10
2023-02-11T08:13:48.292Z,2.20
2023-02-11T08:16:34.873Z,2.30
2023-02-11T08:19:04.976Z,2.20
2023-02-11T08:21:31.693Z,2.30
2023-02-11T08:23:58.835Z,2.30
2023-02-11T08:26:28.923Z,2.30
2023-02-11T08:28:57.070Z,2.30
2023-02-11T08:31:30.006Z,2.30
2023-02-11T08:33:58.198Z,2.40
2023-02-11T08:36:28.990Z,2.40
2023-02-11T08:39:17.374Z,2.50
2023-02-11T08:41:48.361Z,2.50
2023-02-11T08:44:15.024Z,2.50
2023-02-11T08:46:41.719Z,2.50
2023-02-11T08:49:08.614Z,2.50
2023-02-11T08:51:35.324Z,2.60
2023-02-11T08:54:02.173Z,2.60
2023-02-11T08:56:31.333Z,2.60
2023-02-11T08:58:58.092Z,2.70
2023-02-11T09:01:28.407Z,2.80
2023-02-11T09:03:55.951Z,2.90
2023-02-11T09:06:24.236Z,3.00
2023-02-11T09:08:53.829Z,3.00
2023-02-11T09:11:25.368Z,3.00
2023-02-11T09:13:54.398Z,3.00
2023-02-11T09:16:23.966Z,3.10
2023-02-11T09:18:51.206Z,3.20
2023-02-11T09:21:19.164Z,3.20
2023-02-11T09:23:47.648Z,3.20
2023-02-11T09:26:20.342Z,3.30
2023-02-11T09:28:47.760Z,3.40
2023-02-11T09:31:23.581Z,3.40
2023-02-11T09:33:53.505Z,3.40
2023-02-11T09:36:22.728Z,3.50
2023-02-11T09:38:50.200Z,3.60
2023-02-11T09:41:47.857Z,3.70
2023-02-11T09:44:22.345Z,3.60
2023-02-11T09:47:21.218Z,3.70
2023-02-11T09:49:52.725Z,3.80
2023-02-11T09:53:00.995Z,3.90
2023-02-11T09:55:37.460Z,3.90
2023-02-11T09:58:11.295Z,4.00
2023-02-11T10:01:08.427Z,4.10
2023-02-11T10:04:12.841Z,4.10
2023-02-11T10:07:01.690Z,4.20
2023-02-11T10:09:44.639Z,4.30
2023-02-11T10:12:32.976Z,4.40
2023-02-11T10:15:11.895Z,4.40
2023-02-11T10:18:12.670Z,4.40
2023-02-11T10:21:06.675Z,4.40
2023-02-11T10:23:41.167Z,4.50
2023-02-11T10:26:17.582Z,4.60
2023-02-11T10:28:54.268Z,4.70
2023-02-11T10:31:35.736Z,4.80
2023-02-11T10:34:11.474Z,5.00
2023-02-11T10:36:41.301Z,5.20
2023-02-11T10:39:25.856Z,5.40
2023-02-11T10:42:12.617Z,5.40
2023-02-11T10:45:07.199Z,5.50
2023-02-11T10:47:38.416Z,5.70
2023-02-11T10:50:37.282Z,6.00
2023-02-11T10:53:24.331Z,6.00
2023-02-11T10:55:55.723Z,6.00
2023-02-11T10:58:30.409Z,5.90
2023-02-11T11:01:00.068Z,5.80
2023-02-11T11:03:32.019Z,5.90
2023-02-11T11:06:08.689Z,5.90
2023-02-11T11:08:50.781Z,5.80
2023-02-11T11:11:20.184Z,5.70
2023-02-11T11:13:58.166Z,5.70
2023-02-11T11:16:29.321Z,5.80
2023-02-11T11:19:08.376Z,5.70
2023-02-11T11:21:44.112Z,5.80
2023-02-11T11:24:16.964Z,5.70
2023-02-11T11:27:04.228Z,5.70
2023-02-11T11:29:33.654Z,5.70
2023-02-11T11:32:20.732Z,5.80
2023-02-11T11:34:56.634Z,5.90
2023-02-11T11:37:27.643Z,6.00
2023-02-11T11:39:57.289Z,6.10
2023-02-11T11:42:30.788Z,6.20
2023-02-11T11:45:24.900Z,6.10
2023-02-11T11:48:03.247Z,6.10
2023-02-11T11:50:39.751Z,6.20
2023-02-11T11:53:39.087Z,6.30
2023-02-11T11:56:19.227Z,6.30
2023-02-11T11:58:46.048Z,6.30
2023-02-11T12:01:36.526Z,6.40
2023-02-11T12:04:32.795Z,6.30
2023-02-11T12:07:05.464Z,6.30
2023-02-11T12:10:01.193Z,6.20
2023-02-11T12:12:32.491Z,6.30
2023-02-11T12:15:25.161Z,6.20
2023-02-11T12:18:04.367Z,6.30
2023-02-11T12:21:05.535Z,6.30
2023-02-11T12:24:00.847Z,6.30
2023-02-11T12:26:52.658Z,6.50
2023-02-11T12:29:43.246Z,6.50
2023-02-11T12:32:36.414Z,6.50
2023-02-11T12:35:41.220Z,6.50
2023-02-11T12:38:29.510Z,6.50
2023-02-11T12:41:43.046Z,6.60
2023-02-11T12:44:21.534Z,6.60
2023-02-11T12:47:02.203Z,6.70
2023-02-11T12:49:56.494Z,6.70
2023-02-11T12:52:53.519Z,6.60
2023-02-11T12:55:22.691Z,6.70
2023-02-11T12:57:51.924Z,6.60
2023-02-11T13:00:25.375Z,6.60
2023-02-11T13:03:09.411Z,6.40
2023-02-11T13:05:56.907Z,6.30
2023-02-11T13:08:34.236Z,6.40
2023-02-11T13:11:27.254Z,6.30
2023-02-11T13:14:26.884Z,6.30
2023-02-11T13:16:55.054Z,6.30
2023-02-11T13:19:39.063Z,6.30
2023-02-11T13:22:08.914Z,6.30
2023-02-11T13:24:48.602Z,6.30
2023-02-11T13:27:24.269Z,6.30
2023-02-11T13:30:11.786Z,6.40
2023-02-11T13:32:57.039Z,6.40
2023-02-11T13:35:29.322Z,6.50
2023-02-11T13:37:57.497Z,6.50
2023-02-11T13:40:28.416Z,6.50
2023-02-11T13:42:58.351Z,6.40
2023-02-11T13:45:38.593Z,6.40
2023-02-11T13:48:15.254Z,6.30
2023-02-11T13:50:48.470Z,6.30
2023-02-11T13:53:17.152Z,6.30
2023-02-11T13:55:51.121Z,6.30
2023-02-11T13:58:29.027Z,6.30
2023-02-11T14:00:55.987Z,6.30
2023-02-11T14:03:45.015Z,6.30
2023-02-11T14:06:33.340Z,6.30
2023-02-11T14:09:09.294Z,6.30
2023-02-11T14:11:43.807Z,6.30
2023-02-11T14:14:33.445Z,6.20
2023-02-11T14:17:00.294Z,6.30
2023-02-11T14:19:45.015Z,6.20
2023-02-11T14:22:15.142Z,6.20
2023-02-11T14:24:59.213Z,6.10
2023-02-11T14:27:51.320Z,6.10
2023-02-11T14:30:26.718Z,6.10
2023-02-11T14:33:04.795Z,6.00
2023-02-11T14:36:12.093Z,6.00
2023-02-11T14:38:58.876Z,6.00
2023-02-11T14:41:27.170Z,6.00
2023-02-11T14:43:56.715Z,6.00
2023-02-11T14:46:25.204Z,6.00
2023-02-11T14:48:55.228Z,5.90
2023-02-11T14:51:26.595Z,6.00
2023-02-11T14:53:57.823Z,5.90
2023-02-11T14:56:27.826Z,5.90
2023-02-11T14:58:55.439Z,5.90
2023-02-11T15:01:36.641Z,5.90
2023-02-11T15:04:06.130Z,5.90
2023-02-11T15:06:39.327Z,5.90
2023-02-11T15:09:05.976Z,5.90
2023-02-11T15:11:39.729Z,5.80
2023-02-11T15:14:31.651Z,5.80
2023-02-11T15:17:09.109Z,5.80
2023-02-11T15:19:42.027Z,5.80
2023-02-11T15:22:18.720Z,5.80
2023-02-11T15:24:45.950Z,5.80
2023-02-11T15:27:18.495Z,5.80
2023-02-11T15:29:49.326Z,5.80
2023-02-11T15:32:19.698Z,5.80
2023-02-11T15:34:47.869Z,5.80
2023-02-11T15:37:22.187Z,5.80
2023-02-11T15:39:49.921Z,5.80
2023-02-11T15:42:23.893Z,5.80
2023-02-11T15:45:13.659Z,5.80
2023-02-11T15:47:55.595Z,5.90
2023-02-11T15:50:28.763Z,5.90
2023-02-11T15:52:59.282Z,5.90
2023-02-11T15:55:28.568Z,5.90
2023-02-11T15:57:58.446Z,5.80
2023-02-11T16:00:33.801Z,5.80
2023-02-11T16:03:00.619Z,5.80
2023-02-11T16:05:28.704Z,5.80
2023-02-11T16:07:56.793Z,5.80
2023-02-11T16:10:32.038Z,5.80
2023-02-11T16:13:07.516Z,5.80
2023-02-11T16:15:34.194Z,5.70
2023-02-11T16:18:31.037Z,5.70
2023-02-11T16:21:05.311Z,5.70
2023-02-11T16:23:38.168Z,5.70
2023-02-11T16:26:10.673Z,5.70
2023-02-11T16:28:38.217Z,5.70
2023-02-11T16:31:05.990Z,5.70
2023-02-11T16:33:32.793Z,5.70
2023-02-11T16:36:02.055Z,5.60
2023-02-11T16:38:29.876Z,5.60
2023-02-11T16:40:56.575Z,5.60
2023-02-11T16:43:23.317Z,5.70
2023-02-11T16:45:50.634Z,5.70
2023-02-11T16:48:19.584Z,5.60
2023-02-11T16:50:52.147Z,5.60
2023-02-11T16:53:25.088Z,5.60
2023-02-11T16:55:53.032Z,5.60
2023-02-11T16:58:19.974Z,5.60
2023-02-11T17:00:48.333Z,5.60
2023-02-11T17:03:22.793Z,5.60
2023-02-11T17:05:55.626Z,5.60
2023-02-11T17:08:22.778Z,5.60
2023-02-11T17:10:49.983Z,5.60
2023-02-11T17:13:16.859Z,5.60
2023-02-11T17:15:43.584Z,5.60
2023-02-11T17:18:13.890Z,5.60
2023-02-11T17:20:41.092Z,5.60
2023-02-11T17:23:08.051Z,5.60
2023-02-11T17:25:37.236Z,5.60
2023-02-11T17:28:08.902Z,5.60
2023-02-11T17:30:35.845Z,5.60
2023-02-11T17:33:02.569Z,5.60
2023-02-11T17:35:29.395Z,5.60
2023-02-11T17:37:57.933Z,5.60
2023-02-11T17:40:24.631Z,5.60
2023-02-11T17:42:55.928Z,5.60
2023-02-11T17:45:22.701Z,5.60
2023-02-11T17:47:49.691Z,5.60
2023-02-11T17:50:16.568Z,5.60
2023-02-11T17:52:43.300Z,5.60
2023-02-11T17:55:10.023Z,5.60
2023-02-11T17:57:36.789Z,5.60
2023-02-11T18:00:06.402Z,5.50
2023-02-11T18:02:33.538Z,5.50
2023-02-11T18:05:03.042Z,5.50
2023-02-11T18:07:30.236Z,5.50
2023-02-11T18:09:57.020Z,5.50
2023-02-11T18:12:26.670Z,5.50
2023-02-11T18:14:58.269Z,5.50
2023-02-11T18:17:25.463Z,5.50
2023-02-11T18:19:55.675Z,5.50
2023-02-11T18:22:22.921Z,5.50
2023-02-11T18:24:55.581Z,5.50
2023-02-11T18:27:22.872Z,5.50
2023-02-11T18:29:49.603Z,5.50
2023-02-11T18:32:16.507Z,5.50
2023-02-11T18:34:43.257Z,5.50
2023-02-11T18:37:10.317Z,5.50
2023-02-11T18:39:37.130Z,5.50
2023-02-11T18:42:03.958Z,5.50
2023-02-11T18:44:30.698Z,5.50
2023-02-11T18:46:57.519Z,5.50
2023-02-11T18:49:24.299Z,5.50
2023-02-11T18:51:51.005Z,5.50
2023-02-11T18:54:17.814Z,5.50
2023-02-11T18:56:44.578Z,5.50
2023-02-11T18:59:11.405Z,5.50
2023-02-11T19:01:40.678Z,5.50
2023-02-11T19:04:07.402Z,5.50
2023-02-11T19:06:36.746Z,5.50
2023-02-11T19:09:09.905Z,5.50
2023-02-11T19:11:47.936Z,5.50
2023-02-11T19:14:21.065Z,5.50
2023-02-11T19:16:50.485Z,5.50
2023-02-11T19:19:17.886Z,5.50
2023-02-11T19:21:45.962Z,5.50
2023-02-11T19:24:15.498Z,5.50
2023-02-11T19:26:42.579Z,5.50
2023-02-11T19:29:09.478Z,5.50
2023-02-11T19:31:36.263Z,5.50
2023-02-11T19:34:03.673Z,5.50
2023-02-11T19:36:30.643Z,5.50
2023-02-11T19:39:00.987Z,5.50
2023-02-11T19:41:29.116Z,5.50
2023-02-11T19:44:00.915Z,5.50
2023-02-11T19:46:30.916Z,5.50
2023-02-11T19:49:00.196Z,5.50
2023-02-11T19:51:27.490Z,5.50
2023-02-11T19:53:54.223Z,5.50
2023-02-11T19:56:22.293Z,5.50
2023-02-11T19:58:49.021Z,5.50
2023-02-11T20:01:19.389Z,5.50
2023-02-11T20:03:50.000Z,5.50
2023-02-11T20:06:23.436Z,5.50
2023-02-11T20:09:14.534Z,5.50
2023-02-11T20:11:41.590Z,5.50
2023-02-11T20:14:10.462Z,5.50
2023-02-11T20:16:47.950Z,5.50
2023-02-11T20:19:18.008Z,5.50
2023-02-11T20:21:47.165Z,5.50
2023-02-11T20:24:15.305Z,5.50
2023-02-11T20:26:42.503Z,5.50
2023-02-11T20:29:09.936Z,5.50
2023-02-11T20:31:36.967Z,5.50
2023-02-11T20:34:03.966Z,5.50
2023-02-11T20:36:35.471Z,5.50
2023-02-11T20:39:04.811Z,5.50
2023-02-11T20:41:34.294Z,5.50
2023-02-11T20:44:04.629Z,5.50
2023-02-11T20:46:33.073Z,5.50
2023-02-11T20:49:00.558Z,5.50
2023-02-11T20:51:30.355Z,5.50
2023-02-11T20:53:57.765Z,5.40
2023-02-11T20:56:28.649Z,5.40
2023-02-11T20:58:57.562Z,5.40
2023-02-11T21:01:53.542Z,5.40
2023-02-11T21:04:25.632Z,5.40
2023-02-11T21:06:56.026Z,5.40
2023-02-11T21:09:25.055Z,5.40
2023-02-11T21:11:52.996Z,5.40
2023-02-11T21:14:22.204Z,5.40
2023-02-11T21:16:49.177Z,5.30
2023-02-11T21:19:16.793Z,5.30
2023-02-11T21:21:43.992Z,5.30
2023-02-11T21:24:11.223Z,5.30
2023-02-11T21:26:38.416Z,5.20
2023-02-11T21:29:07.203Z,5.20
2023-02-11T21:31:35.239Z,5.20
2023-02-11T21:34:02.504Z,5.20
2023-02-11T21:36:30.201Z,5.20
2023-02-11T21:38:57.157Z,5.20
2023-02-11T21:41:24.795Z,5.20
2023-02-11T21:43:52.329Z,5.20
2023-02-11T21:46:20.378Z,5.20
2023-02-11T21:48:47.816Z,5.20
2023-02-11T21:51:20.762Z,5.20
2023-02-11T21:53:47.770Z,5.20
2023-02-11T21:56:17.639Z,5.30
2023-02-11T21:58:45.706Z,5.20
2023-02-11T22:01:21.365Z,5.20
2023-02-11T22:03:48.489Z,5.20
2023-02-11T22:06:18.444Z,5.10
2023-02-11T22:08:45.108Z,5.10
2023-02-11T22:11:12.865Z,5.10
2023-02-11T22:13:40.649Z,5.10
2023-02-11T22:16:10.643Z,5.10
2023-02-11T22:18:37.865Z,5.00
2023-02-11T22:21:16.757Z,4.90
2023-02-11T22:23:43.881Z,4.90
2023-02-11T22:26:17.153Z,4.80
2023-02-11T22:28:44.313Z,4.80
2023-02-11T22:31:20.310Z,4.80
2023-02-11T22:33:47.135Z,4.80
2023-02-11T22:36:22.601Z,4.80
2023-02-11T22:38:49.712Z,4.70
2023-02-11T22:41:18.412Z,4.70
2023-02-11T22:43:45.395Z,4.70
2023-02-11T22:46:15.147Z,4.70
2023-02-11T22:48:42.063Z,4.70
2023-02-11T22:51:41.195Z,4.70
2023-02-11T22:54:12.199Z,4.60
2023-02-11T22:56:38.942Z,4.60
2023-02-11T22:59:10.704Z,4.60
2023-02-11T23:01:37.843Z,4.60
2023-02-11T23:04:06.878Z,4.60
2023-02-11T23:06:34.461Z,4.60
2023-02-11T23:09:03.752Z,4.70
2023-02-11T23:11:31.565Z,4.70
2023-02-11T23:13:58.822Z,4.70
2023-02-11T23:16:28.793Z,4.70
2023-02-11T23:18:55.565Z,4.70
2023-02-11T23:21:28.230Z,4.70
2023-02-11T23:24:01.393Z,4.80
2023-02-11T23:26:28.669Z,4.80
2023-02-11T23:28:57.974Z,4.80
2023-02-11T23:31:30.560Z,4.70
2023-02-11T23:33:57.652Z,4.80
2023-02-11T23:36:24.408Z,4.70
2023-02-11T23:38:51.377Z,4.70
2023-02-11T23:41:18.689Z,4.70
2023-02-11T23:43:50.551Z,4.80
2023-02-11T23:46:17.339Z,4.70
2023-02-11T23:48:44.165Z,4.70
2023-02-11T23:51:11.041Z,4.70
2023-02-11T23:53:38.939Z,4.60
2023-02-11T23:56:13.314Z,4.50
2023-02-11T23:58:40.041Z,4.50
